Weather History for Mason, MI

Change the Weather History Date:

Thursday, December 20, 2012

  Actual Average (KLAN) Record (KLAN)
Temperature  
Mean Temperature 40 °F 27 °F  
Max Temperature 46 °F 33 °F 59 °F (1957)
Min Temperature 35 °F 21 °F -10 °F (1901)
Degree Days  
Heating Degree Days 24 38  
Month to date heating degree days 703  
Since 1 July heating degree days 2117  
Cooling Degree Days 0 0  
Month to date cooling degree days 0  
Year to date cooling degree days 625  
Moisture  
Dew Point 36 °F    
Average Humidity 87    
Maximum Humidity 93    
Minimum Humidity 77    
Precipitation  
Precipitation 0.00 in 0.05 in 1.10 in (1895)
Month to date precipitation 1.24  
Year to date precipitation 31.14  
Snow  
Snow 0.00 in 0.50 in 7.90 in (1951)
Month to date snowfall 7.9  
Since 1 July snowfall 11.7  
Snow Depth -    
Sea Level Pressure  
Sea Level Pressure 29.49 in    
Wind  
Wind Speed 12 mph (SE)    
Max Wind Speed 24 mph    
Max Gust Speed 37 mph    
Visibility 7 miles    
Events Rain    
T = Trace of Precipitation, MM = Missing Value Source: NWS Daily Summary

Daily Weather History Graph

Daily Weather History Graph

Search for Another Location

Airport:

Trip Planner

Search our weather history database for the weather conditions in past years. The results will help you decide how hot, cold, wet, or windy it might be!

Date:

Astronomy

Dec. 20, 2012 Rise Set
Actual Time 8:04 AM EST 5:07 PM EST
Civil Twilight 7:31 AM EST 5:39 PM EST
Nautical Twilight 6:56 AM EST 6:14 PM EST
Astronomical Twilight 6:21 AM EST 6:49 PM EST
Moon 12:31 PM EST (12/20) 12:43 AM EST (12/20)
Length of Visible Light 10h 07m
Length of Day
9h 03m
First Quarter, 55% of the Moon is Illuminated
Dec 20
First Quarter
Dec 28
Full
Jan 4
Last Quarter
Jan 11
New
Jan 18
First Quarter

Hourly Weather History & Observations

Time (EST) Temp. Windchill Dew Point Humidity Pressure Visibility Wind Dir Wind Speed Gust Speed Precip Events Conditions
12:14 AM 36.1 °F 29.3 °F 32.0 °F 85% 30.04 in 7.0 mi SE 9.2 mph - N/A   Mostly Cloudy
12:34 AM 36.0 °F 31.1 °F 32.0 °F 86% 30.02 in 7.0 mi SE 5.8 mph - N/A   Overcast
12:54 AM 36.0 °F 30.3 °F 32.0 °F 86% 30.01 in 7.0 mi East 6.9 mph - N/A   Overcast
1:14 AM 36.1 °F 28.7 °F 32.0 °F 85% 29.99 in 7.0 mi East 10.4 mph - N/A   Overcast
1:34 AM 36.0 °F 29.0 °F 32.0 °F 86% 29.96 in 5.0 mi East 9.2 mph - N/A Rain Light Rain
1:54 AM 35.1 °F 27.4 °F 32.0 °F 89% 29.97 in 3.0 mi ESE 10.4 mph - N/A Rain Light Rain
2:13 AM 35.1 °F 27.4 °F 32.4 °F 90% 29.97 in 5.0 mi SE 10.4 mph - N/A Rain Light Rain
2:34 AM 35.6 °F 29.2 °F 32.9 °F 90% 29.96 in 5.0 mi ESE 8.1 mph 16.1 mph N/A Rain Light Rain
2:54 AM 35.6 °F 27.5 °F 32.9 °F 90% 29.95 in 5.0 mi ESE 11.5 mph - N/A   Overcast
3:13 AM 35.8 °F 28.3 °F 32.9 °F 89% 29.93 in 5.0 mi ESE 10.4 mph - N/A   Overcast
3:34 AM 36.0 °F 26.7 °F 32.9 °F 89% 29.89 in 7.0 mi East 15.0 mph 21.9 mph N/A   Overcast
3:54 AM 36.1 °F 27.7 °F 32.9 °F 88% 29.86 in 7.0 mi ESE 12.7 mph 19.6 mph N/A   Overcast
4:14 AM 36.5 °F 27.8 °F 32.9 °F 87% 29.84 in 7.0 mi East 13.8 mph 19.6 mph N/A   Overcast
4:34 AM 36.7 °F 28.9 °F 32.9 °F 86% 29.85 in 7.0 mi East 11.5 mph 18.4 mph N/A   Overcast
4:54 AM 37.0 °F 30.4 °F 32.9 °F 85% 29.87 in 7.0 mi ESE 9.2 mph 19.6 mph N/A   Overcast
5:14 AM 37.4 °F 31.4 °F 33.1 °F 84% 29.88 in 7.0 mi ESE 8.1 mph - N/A   Overcast
5:34 AM 37.6 °F 31.0 °F 33.4 °F 85% 29.86 in 7.0 mi ESE 9.2 mph - N/A   Overcast
5:54 AM 37.6 °F 29.6 °F 33.8 °F 86% 29.82 in 7.0 mi East 12.7 mph 19.6 mph N/A   Light Drizzle
6:14 AM 37.8 °F 29.4 °F 33.8 °F 86% 29.80 in 7.0 mi ESE 13.8 mph 21.9 mph N/A Rain Light Rain
6:34 AM 37.4 °F 27.2 °F 34.0 °F 87% 29.76 in 4.0 mi East 19.6 mph 24.2 mph N/A Rain Rain
6:54 AM 37.4 °F 27.8 °F 34.3 °F 89% 29.75 in 5.0 mi ESE 17.3 mph 25.3 mph N/A Rain Light Rain
7:14 AM 37.6 °F 28.1 °F 34.7 °F 89% 29.70 in 5.0 mi East 17.3 mph 27.6 mph N/A   Overcast
7:34 AM 38.3 °F 29.3 °F 34.9 °F 87% 29.70 in 7.0 mi ESE 16.1 mph 25.3 mph N/A   Overcast
7:54 AM 38.3 °F 30.9 °F 34.9 °F 87% 29.66 in 7.0 mi East 11.5 mph 29.9 mph N/A Rain Light Rain
8:14 AM 38.3 °F 30.1 °F 35.1 °F 88% 29.66 in 7.0 mi ESE 13.8 mph 23.0 mph N/A   Overcast
8:34 AM 38.7 °F 29.5 °F 35.1 °F 87% 29.66 in 7.0 mi ESE 17.3 mph 24.2 mph N/A   Overcast
8:54 AM 38.8 °F 29.7 °F 35.1 °F 86% 29.61 in 5.0 mi East 17.3 mph 25.3 mph N/A Rain Light Rain
9:14 AM 39.2 °F 30.2 °F 35.1 °F 85% 29.60 in 7.0 mi ESE 17.3 mph 29.9 mph N/A   Overcast
9:34 AM 39.2 °F 30.8 °F 35.1 °F 85% 29.59 in 5.0 mi ESE 15.0 mph 25.3 mph N/A Rain Rain
9:54 AM 39.2 °F 30.5 °F 35.4 °F 86% 29.57 in 1.8 mi ESE 16.1 mph 27.6 mph N/A Rain Light Rain
10:14 AM 38.8 °F 29.7 °F 35.6 °F 88% 29.57 in 2.0 mi ESE 17.3 mph 24.2 mph N/A   Overcast
10:34 AM 39.2 °F 30.8 °F 35.6 °F 87% 29.55 in 4.0 mi ESE 15.0 mph 25.3 mph N/A Rain Rain
10:54 AM 39.2 °F 30.5 °F 35.8 °F 88% 29.54 in 2.5 mi ESE 16.1 mph 28.8 mph N/A Rain Light Rain
11:14 AM 39.2 °F 29.8 °F 35.8 °F 88% 29.51 in 3.0 mi ESE 18.4 mph 28.8 mph N/A   Unknown
11:34 AM 39.2 °F 30.2 °F 36.0 °F 88% 29.50 in 2.5 mi ESE 17.3 mph 29.9 mph N/A   Overcast
11:54 AM 39.2 °F 30.2 °F 36.0 °F 88% 29.46 in 2.5 mi SE 17.3 mph 31.1 mph N/A   Unknown
12:14 PM 39.2 °F 28.7 °F 36.1 °F 89% 29.42 in 4.0 mi ESE 23.0 mph 36.8 mph N/A Rain Rain
12:35 PM 39.2 °F 30.2 °F 36.5 °F 90% 29.39 in 4.0 mi ESE 17.3 mph 32.2 mph N/A   Overcast
12:54 PM 39.6 °F 29.5 °F 36.7 °F 89% 29.37 in 7.0 mi ESE 21.9 mph 29.9 mph N/A Rain Light Rain
1:14 PM 40.1 °F 31.0 °F 37.4 °F 90% 29.31 in 5.0 mi ESE 18.4 mph 28.8 mph N/A Rain Light Rain
1:35 PM 41.0 °F 32.5 °F 37.9 °F 89% 29.25 in 10.0 mi ESE 17.3 mph 33.4 mph N/A   Overcast
1:54 PM 41.0 °F 32.2 °F 38.3 °F 90% 29.28 in 10.0 mi SE 18.4 mph 28.8 mph N/A   Overcast
2:14 PM 41.9 °F 32.1 °F 39.2 °F 90% 29.25 in 10.0 mi SE 24.2 mph 34.5 mph N/A   Overcast
2:35 PM 42.3 °F 34.4 °F 39.4 °F 90% 29.24 in 10.0 mi SE 16.1 mph 25.3 mph N/A   Overcast
2:54 PM 42.8 °F 35.1 °F 40.1 °F 90% 29.22 in 10.0 mi ESE 16.1 mph 27.6 mph N/A   Overcast
3:14 PM 43.3 °F 35.0 °F 40.5 °F 90% 29.22 in 10.0 mi SE 19.6 mph 26.5 mph N/A Rain Light Rain
3:35 PM 43.7 °F 36.0 °F 41.0 °F 90% 29.21 in 7.0 mi SE 17.3 mph 27.6 mph N/A Rain Rain
4:14 PM 43.7 °F 36.9 °F 41.5 °F 92% 29.18 in 1.8 mi SE 13.8 mph 19.6 mph N/A Rain Rain
4:35 PM 43.9 °F 36.5 °F 41.9 °F 93% 29.16 in 3.0 mi SE 16.1 mph 21.9 mph N/A Rain Light Rain
4:54 PM 44.2 °F 37.6 °F 42.1 °F 92% 29.15 in 3.0 mi SE 13.8 mph 19.6 mph N/A Rain Light Rain
5:14 PM 44.6 °F 38.8 °F 42.4 °F 92% 29.14 in 10.0 mi SE 11.5 mph - N/A Rain Rain
5:35 PM 44.8 °F 38.3 °F 42.8 °F 93% 29.13 in 10.0 mi SE 13.8 mph 19.6 mph N/A   Overcast
5:54 PM 45.5 °F 39.9 °F 43.0 °F 91% 29.11 in 10.0 mi SE 11.5 mph - N/A   Overcast
6:14 PM 46.0 °F 41.4 °F 43.7 °F 92% 29.11 in 10.0 mi SE 9.2 mph - N/A   Overcast
6:35 PM 45.3 °F 41.1 °F 41.0 °F 85% 29.13 in 4.0 mi SW 8.1 mph 25.3 mph N/A Rain Rain
6:54 PM 44.6 °F 42.2 °F 40.5 °F 85% 29.13 in 7.0 mi SSW 4.6 mph - N/A Rain Rain
7:15 PM 43.7 °F 42.1 °F 40.5 °F 88% 29.14 in 7.0 mi SSW 3.5 mph - N/A Rain Rain
7:35 PM 43.7 °F 40.3 °F 40.8 °F 90% 29.15 in 7.0 mi SSW 5.8 mph - N/A Rain Light Rain
7:54 PM 43.5 °F 37.5 °F 40.5 °F 89% 29.15 in 5.0 mi SW 11.5 mph 17.3 mph N/A Rain Light Rain
8:15 PM 42.1 °F 35.2 °F 37.4 °F 83% 29.16 in 10.0 mi SW 12.7 mph 19.6 mph N/A Rain Light Rain
8:34 PM 41.5 °F 35.0 °F 36.9 °F 83% 29.17 in 10.0 mi SW 11.5 mph 16.1 mph N/A Rain Light Rain
8:54 PM 40.1 °F 38.0 °F 35.1 °F 82% 29.17 in 10.0 mi SSW 3.5 mph - N/A Rain Light Rain
9:15 PM 39.7 °F 37.6 °F 34.0 °F 80% 29.16 in 10.0 mi South 3.5 mph - N/A   Overcast
9:34 PM 39.6 °F 36.3 °F 32.9 °F 77% 29.17 in 10.0 mi South 4.6 mph - N/A   Overcast
9:54 PM 38.8 °F 35.4 °F 32.5 °F 78% 29.17 in 10.0 mi South 4.6 mph - N/A   Overcast
10:15 PM 38.3 °F 34.8 °F 32.4 °F 79% 29.17 in 10.0 mi South 4.6 mph - N/A   Overcast
10:34 PM 37.9 °F 32.7 °F 31.5 °F 77% 29.16 in 10.0 mi South 6.9 mph - N/A   Overcast
10:54 PM 37.6 °F 35.1 °F 30.9 °F 77% 29.16 in 10.0 mi South 3.5 mph - N/A   Overcast
11:15 PM 37.0 °F 29.8 °F 31.6 °F 81% 29.15 in 10.0 mi SSE 10.4 mph - N/A   Overcast
11:34 PM 36.5 °F 31.0 °F 30.2 °F 78% 29.15 in 10.0 mi South 6.9 mph - N/A   Overcast
11:54 PM 35.8 °F 26.9 °F 30.2 °F 80% 29.15 in 10.0 mi South 13.8 mph - N/A   Overcast